createdAt,value
2023-05-25T00:01:09.073Z,215.30
2023-05-25T00:03:36.318Z,210.73
2023-05-25T00:06:04.018Z,218.80
2023-05-25T00:08:31.205Z,216.40
2023-05-25T00:10:58.477Z,222.70
2023-05-25T00:13:25.969Z,224.90
2023-05-25T00:15:53.149Z,224.63
2023-05-25T00:18:20.124Z,218.50
2023-05-25T00:20:47.826Z,224.85
2023-05-25T00:23:15.273Z,230.10
2023-05-25T00:25:42.743Z,233.88
2023-05-25T00:28:11.910Z,216.55
2023-05-25T00:30:39.547Z,238.57
2023-05-25T00:33:07.133Z,244.13
2023-05-25T00:35:34.170Z,224.07
2023-05-25T00:38:01.211Z,219.50
2023-05-25T00:40:28.372Z,218.40
2023-05-25T00:42:57.781Z,227.52
2023-05-25T00:45:24.900Z,228.45
2023-05-25T00:47:53.242Z,233.55
2023-05-25T00:50:38.046Z,238.07
2023-05-25T00:53:12.199Z,246.13
2023-05-25T00:55:55.863Z,233.93
2023-05-25T00:58:27.431Z,231.52
2023-05-25T01:00:57.894Z,243.13
2023-05-25T01:03:29.732Z,217.13
2023-05-25T01:05:58.177Z,242.57
2023-05-25T01:08:25.875Z,223.50
2023-05-25T01:10:54.278Z,223.27
2023-05-25T01:13:21.843Z,215.00
2023-05-25T01:15:51.297Z,258.45
2023-05-25T01:18:18.471Z,169.90
2023-05-25T01:21:14.250Z,249.88
2023-05-25T01:23:51.457Z,248.82
2023-05-25T01:26:20.857Z,228.55
2023-05-25T01:28:52.910Z,201.73
2023-05-25T01:31:23.504Z,224.85
2023-05-25T01:33:52.076Z,234.00
2023-05-25T01:36:19.964Z,240.80
2023-05-25T01:38:47.096Z,239.98
2023-05-25T01:41:14.158Z,201.73
2023-05-25T01:43:43.078Z,265.98
2023-05-25T01:46:37.358Z,229.70
2023-05-25T01:49:35.559Z,244.90
2023-05-25T01:52:25.847Z,236.35
2023-05-25T01:55:05.181Z,264.63
2023-05-25T01:57:37.953Z,245.43
2023-05-25T02:00:06.798Z,244.23
2023-05-25T02:02:44.717Z,249.48
2023-05-25T02:05:12.185Z,244.68
2023-05-25T02:07:39.209Z,247.85
2023-05-25T02:10:07.083Z,246.20
2023-05-25T02:12:34.109Z,243.68
2023-05-25T02:15:01.307Z,246.30
2023-05-25T02:17:30.230Z,215.18
2023-05-25T02:19:57.539Z,229.95
2023-05-25T02:22:25.555Z,221.27
2023-05-25T02:24:52.522Z,230.32
2023-05-25T02:27:19.572Z,230.23
2023-05-25T02:29:48.398Z,227.57
2023-05-25T02:32:16.176Z,220.18
2023-05-25T02:34:43.509Z,235.75
2023-05-25T02:37:10.609Z,224.50
2023-05-25T02:39:38.367Z,236.80
2023-05-25T02:42:06.226Z,239.38
2023-05-25T02:44:33.305Z,224.05
2023-05-25T02:47:00.522Z,225.43
2023-05-25T02:49:27.603Z,233.32
2023-05-25T02:51:54.625Z,229.45
2023-05-25T02:54:21.697Z,239.73
2023-05-25T02:56:49.008Z,232.75
2023-05-25T02:59:17.872Z,232.85
2023-05-25T03:01:46.353Z,239.43
2023-05-25T03:04:13.811Z,233.77
2023-05-25T03:06:41.292Z,241.65
2023-05-25T03:09:13.284Z,248.70
2023-05-25T03:11:41.062Z,232.30
2023-05-25T03:14:11.486Z,240.90
2023-05-25T03:16:40.051Z,231.18
2023-05-25T03:19:08.454Z,245.85
2023-05-25T03:21:38.270Z,230.55
2023-05-25T03:24:05.804Z,229.02
2023-05-25T03:26:34.011Z,228.70
2023-05-25T03:29:02.976Z,231.90
2023-05-25T03:31:30.106Z,226.98
2023-05-25T03:33:58.092Z,211.15
2023-05-25T03:36:28.029Z,206.60
2023-05-25T03:38:55.121Z,204.02
2023-05-25T03:41:22.380Z,219.10
2023-05-25T03:43:49.877Z,207.48
2023-05-25T03:46:17.087Z,211.40
2023-05-25T03:48:44.397Z,209.27
2023-05-25T03:51:11.484Z,203.82
2023-05-25T03:53:39.101Z,236.05
2023-05-25T03:56:08.143Z,190.10
2023-05-25T03:58:37.605Z,231.57
2023-05-25T04:01:05.441Z,212.20
2023-05-25T04:03:33.173Z,229.75
2023-05-25T04:06:00.718Z,225.95
2023-05-25T04:08:29.376Z,229.07
2023-05-25T04:10:58.075Z,227.57
2023-05-25T04:13:25.167Z,229.18
2023-05-25T04:15:52.911Z,221.02
2023-05-25T04:18:23.250Z,234.40
2023-05-25T04:20:50.429Z,229.70
2023-05-25T04:23:21.380Z,245.82
2023-05-25T04:25:51.283Z,214.55
2023-05-25T04:28:19.840Z,221.75
2023-05-25T04:31:13.613Z,210.32
2023-05-25T04:33:51.343Z,203.10
2023-05-25T04:36:44.833Z,209.48
2023-05-25T04:39:14.429Z,163.80
2023-05-25T04:41:49.474Z,204.63
2023-05-25T04:44:16.568Z,193.85
2023-05-25T04:46:48.131Z,229.48
2023-05-25T04:49:21.527Z,215.88
2023-05-25T04:51:48.629Z,218.82
2023-05-25T04:54:15.918Z,225.90
2023-05-25T04:56:43.987Z,244.18
2023-05-25T04:59:11.384Z,170.63
2023-05-25T05:01:42.136Z,152.63
2023-05-25T05:04:12.348Z,242.50
2023-05-25T05:06:39.876Z,241.85
2023-05-25T05:09:08.876Z,245.55
2023-05-25T05:11:35.926Z,246.98
2023-05-25T05:14:04.317Z,248.13
2023-05-25T05:16:35.074Z,247.05
2023-05-25T05:19:02.556Z,242.70
2023-05-25T05:21:30.131Z,245.18
2023-05-25T05:23:57.308Z,250.20
2023-05-25T05:26:24.558Z,247.95
2023-05-25T05:28:52.714Z,245.18
2023-05-25T05:31:21.499Z,242.80
2023-05-25T05:33:48.552Z,244.48
2023-05-25T05:36:16.833Z,245.10
2023-05-25T05:38:46.767Z,244.50
2023-05-25T05:41:14.500Z,243.55
2023-05-25T05:43:46.695Z,249.13
2023-05-25T05:46:13.999Z,239.07
2023-05-25T05:48:41.925Z,246.85
2023-05-25T05:51:10.222Z,240.45
2023-05-25T05:53:37.868Z,247.40
2023-05-25T05:56:05.887Z,242.07
2023-05-25T05:58:33.142Z,246.57
2023-05-25T06:01:01.521Z,242.40
2023-05-25T06:03:29.012Z,244.85
2023-05-25T06:05:56.499Z,248.15
2023-05-25T06:08:23.888Z,238.02
2023-05-25T06:10:51.340Z,243.10
2023-05-25T06:13:18.433Z,246.00
2023-05-25T06:15:45.774Z,248.30
2023-05-25T06:18:18.041Z,245.77
2023-05-25T06:20:45.202Z,145.32
2023-05-25T06:23:14.101Z,141.43
2023-05-25T06:25:41.518Z,189.70
2023-05-25T06:28:08.778Z,151.63
2023-05-25T06:30:35.981Z,170.90
2023-05-25T06:33:04.618Z,159.32
2023-05-25T06:35:31.710Z,175.02
2023-05-25T06:37:58.827Z,189.75
2023-05-25T06:40:26.079Z,177.85
2023-05-25T06:42:53.247Z,201.93
2023-05-25T06:45:40.844Z,251.32
2023-05-25T06:48:08.057Z,169.48
2023-05-25T06:50:35.643Z,199.10
2023-05-25T06:53:02.696Z,167.23
2023-05-25T06:55:29.715Z,148.27
2023-05-25T06:57:56.905Z,211.95
2023-05-25T07:00:24.136Z,223.23
2023-05-25T07:02:51.436Z,194.02
2023-05-25T07:05:18.534Z,209.55
2023-05-25T07:07:45.724Z,197.27
2023-05-25T07:10:12.863Z,210.20
2023-05-25T07:12:39.935Z,208.77
2023-05-25T07:15:07.907Z,219.07
2023-05-25T07:17:36.503Z,225.40
2023-05-25T07:20:06.365Z,206.82
2023-05-25T07:22:33.452Z,217.40
2023-05-25T07:25:00.546Z,216.05
2023-05-25T07:27:27.909Z,214.02
2023-05-25T07:29:54.951Z,206.63
2023-05-25T07:32:22.463Z,223.00
2023-05-25T07:34:49.500Z,201.52
2023-05-25T07:37:16.516Z,218.50
2023-05-25T07:39:43.566Z,225.85
2023-05-25T07:42:11.415Z,212.23
2023-05-25T07:44:38.509Z,212.35
2023-05-25T07:47:06.910Z,214.38
2023-05-25T07:49:34.297Z,205.57
2023-05-25T07:52:03.621Z,210.48
2023-05-25T07:54:30.696Z,196.20
2023-05-25T07:56:57.766Z,209.20
2023-05-25T07:59:27.436Z,189.90
2023-05-25T08:01:54.574Z,207.13
2023-05-25T08:04:21.669Z,214.60
2023-05-25T08:06:48.850Z,201.02
2023-05-25T08:09:15.949Z,198.25
2023-05-25T08:11:45.157Z,207.38
2023-05-25T08:14:12.131Z,215.93
2023-05-25T08:16:39.223Z,211.35
2023-05-25T08:19:06.389Z,216.77
2023-05-25T08:21:35.211Z,215.90
2023-05-25T08:24:04.266Z,223.75
2023-05-25T08:26:45.291Z,211.80
2023-05-25T08:29:19.316Z,206.23
2023-05-25T08:31:49.584Z,200.43
2023-05-25T08:34:17.171Z,191.38
2023-05-25T08:36:44.890Z,198.20
2023-05-25T08:39:12.208Z,203.02
2023-05-25T08:41:44.631Z,198.75
2023-05-25T08:44:14.375Z,194.60
2023-05-25T08:46:41.772Z,195.30
2023-05-25T08:49:14.777Z,195.10
2023-05-25T08:51:54.905Z,240.57
2023-05-25T08:54:30.855Z,199.77
2023-05-25T08:57:17.550Z,181.10
2023-05-25T09:00:00.378Z,178.40
2023-05-25T09:02:38.043Z,192.55
2023-05-25T09:05:05.891Z,187.80
2023-05-25T09:07:33.715Z,186.80
2023-05-25T09:10:02.052Z,213.73
2023-05-25T09:12:31.236Z,177.55
2023-05-25T09:14:59.492Z,174.15
2023-05-25T09:17:27.179Z,183.55
2023-05-25T09:19:54.902Z,169.77
2023-05-25T09:22:22.477Z,183.02
2023-05-25T09:24:49.753Z,190.40
2023-05-25T09:27:19.327Z,182.93
2023-05-25T09:29:51.065Z,181.40
2023-05-25T09:32:19.166Z,158.68
2023-05-25T09:34:47.526Z,173.07
2023-05-25T09:37:17.462Z,177.20
2023-05-25T09:39:45.351Z,170.77
2023-05-25T09:42:12.622Z,214.88
2023-05-25T09:44:40.422Z,190.63
2023-05-25T09:47:07.636Z,178.73
2023-05-25T09:49:35.505Z,164.90
2023-05-25T09:52:02.874Z,178.65
2023-05-25T09:54:29.940Z,164.77
2023-05-25T09:56:57.025Z,152.18
2023-05-25T09:59:24.094Z,157.63
2023-05-25T10:01:54.372Z,165.55
2023-05-25T10:04:21.585Z,171.30
2023-05-25T10:06:52.327Z,161.20
2023-05-25T10:09:20.821Z,133.98
2023-05-25T10:11:51.723Z,140.05
2023-05-25T10:14:29.091Z,160.43
2023-05-25T10:16:59.855Z,137.48
2023-05-25T10:19:48.638Z,136.82
2023-05-25T10:22:41.232Z,132.20
2023-05-25T10:25:30.481Z,132.13
2023-05-25T10:28:07.803Z,105.40
2023-05-25T10:30:37.106Z,120.65
2023-05-25T10:33:05.179Z,121.00
2023-05-25T10:35:42.418Z,117.95
2023-05-25T10:38:19.735Z,148.73
2023-05-25T10:40:53.276Z,132.52
2023-05-25T10:43:22.732Z,117.65
2023-05-25T10:45:50.016Z,114.72
2023-05-25T10:48:17.067Z,101.57
2023-05-25T10:50:50.840Z,112.22
2023-05-25T10:53:21.047Z,90.07
2023-05-25T10:55:53.978Z,86.40
2023-05-25T10:58:24.082Z,85.85
2023-05-25T11:01:08.732Z,90.43
2023-05-25T11:03:45.540Z,71.28
2023-05-25T11:06:17.574Z,63.67
2023-05-25T11:08:51.998Z,63.65
2023-05-25T11:11:19.298Z,63.47
2023-05-25T11:13:48.065Z,59.10
2023-05-25T11:16:27.747Z,60.58
2023-05-25T11:19:00.942Z,61.17
2023-05-25T11:21:27.961Z,57.33
2023-05-25T11:24:04.379Z,51.83
2023-05-25T11:26:34.276Z,65.25
2023-05-25T11:29:13.482Z,57.53
2023-05-25T11:31:43.349Z,52.30
2023-05-25T11:34:12.425Z,61.65
2023-05-25T11:36:39.763Z,45.28
2023-05-25T11:39:17.086Z,48.28
2023-05-25T11:41:56.072Z,41.00
2023-05-25T11:44:36.304Z,52.67
2023-05-25T11:47:13.325Z,48.53
2023-05-25T11:49:42.407Z,39.92
2023-05-25T11:52:10.541Z,40.35
2023-05-25T11:54:41.170Z,41.40
2023-05-25T11:57:20.581Z,38.85
2023-05-25T11:59:57.379Z,33.97
2023-05-25T12:02:24.822Z,36.53
2023-05-25T12:05:02.379Z,41.22
2023-05-25T12:07:30.951Z,32.17
2023-05-25T12:10:09.803Z,29.65
2023-05-25T12:12:48.051Z,21.38
2023-05-25T12:15:23.537Z,25.55
2023-05-25T12:17:53.584Z,25.20
2023-05-25T12:20:21.444Z,25.67
2023-05-25T12:22:48.806Z,25.13
2023-05-25T12:25:21.532Z,27.08
2023-05-25T12:27:48.778Z,27.33
2023-05-25T12:30:15.847Z,30.83
2023-05-25T12:33:13.644Z,26.63
2023-05-25T12:35:49.027Z,25.10
2023-05-25T12:38:19.155Z,22.33
2023-05-25T12:40:46.386Z,19.38
2023-05-25T12:43:15.373Z,31.15
2023-05-25T12:45:43.710Z,28.50
2023-05-25T12:48:10.951Z,23.50
2023-05-25T12:50:38.247Z,36.42
2023-05-25T12:53:05.596Z,25.63
2023-05-25T12:55:35.582Z,33.22
2023-05-25T12:58:06.023Z,32.95
2023-05-25T13:00:34.963Z,38.65
2023-05-25T13:03:03.396Z,33.03
2023-05-25T13:05:34.080Z,28.80
2023-05-25T13:08:02.110Z,31.20
2023-05-25T13:10:32.870Z,29.85
2023-05-25T13:13:01.055Z,31.83
2023-05-25T13:15:28.800Z,28.50
2023-05-25T13:17:58.501Z,36.15
2023-05-25T13:20:30.160Z,33.40
2023-05-25T13:22:57.426Z,35.22
2023-05-25T13:25:27.470Z,33.97
2023-05-25T13:27:56.891Z,28.52
2023-05-25T13:30:24.081Z,31.63
2023-05-25T13:32:52.914Z,30.52
2023-05-25T13:35:37.638Z,32.40
2023-05-25T13:38:05.244Z,31.73
2023-05-25T13:40:32.297Z,29.95
2023-05-25T13:42:59.426Z,36.22
2023-05-25T13:45:26.506Z,28.98
2023-05-25T13:47:53.605Z,37.38
2023-05-25T13:50:20.728Z,34.40
2023-05-25T13:52:49.111Z,38.47
2023-05-25T13:55:16.115Z,28.80
2023-05-25T13:57:43.188Z,31.88
2023-05-25T14:00:10.861Z,32.65
2023-05-25T14:02:38.098Z,30.73
2023-05-25T14:05:05.881Z,92.00
2023-05-25T14:07:33.181Z,34.17
2023-05-25T14:10:00.643Z,28.58
2023-05-25T14:12:27.982Z,31.15
2023-05-25T14:14:55.009Z,30.80
2023-05-25T14:17:22.029Z,30.65
2023-05-25T14:19:49.123Z,34.97
2023-05-25T14:22:16.073Z,32.40
2023-05-25T14:24:43.127Z,49.47
2023-05-25T14:27:10.128Z,32.35
2023-05-25T14:29:37.288Z,29.63
2023-05-25T14:32:04.860Z,29.60
2023-05-25T14:34:31.898Z,32.45
2023-05-25T14:36:58.873Z,34.47
2023-05-25T14:39:26.604Z,34.58
2023-05-25T14:41:53.746Z,31.83
2023-05-25T14:44:20.912Z,37.45
2023-05-25T14:46:47.945Z,39.15
2023-05-25T14:49:16.890Z,37.92
2023-05-25T14:51:43.921Z,32.75
2023-05-25T14:54:13.482Z,33.05
2023-05-25T14:56:40.689Z,29.60
2023-05-25T14:59:08.040Z,37.88
2023-05-25T15:01:35.742Z,33.63
2023-05-25T15:04:03.488Z,39.40
2023-05-25T15:06:32.086Z,42.15
2023-05-25T15:08:59.112Z,35.15
2023-05-25T15:11:26.917Z,34.90
2023-05-25T15:13:53.999Z,46.47
2023-05-25T15:16:21.654Z,39.72
2023-05-25T15:18:48.802Z,39.45
2023-05-25T15:21:15.804Z,36.15
2023-05-25T15:23:42.846Z,31.17
2023-05-25T15:26:11.621Z,37.72
2023-05-25T15:28:38.732Z,34.22
2023-05-25T15:31:05.822Z,27.38
2023-05-25T15:33:48.511Z,35.47
2023-05-25T15:36:17.137Z,31.08
2023-05-25T15:38:45.760Z,30.85
2023-05-25T15:41:16.612Z,26.48
2023-05-25T15:43:58.675Z,28.98
2023-05-25T15:46:26.053Z,26.40
2023-05-25T15:48:54.059Z,16.17
2023-05-25T15:51:21.471Z,20.88
2023-05-25T15:53:48.725Z,30.10
2023-05-25T15:56:15.972Z,39.33
2023-05-25T15:58:47.060Z,21.02
2023-05-25T16:01:14.446Z,35.00
2023-05-25T16:03:43.264Z,45.17
2023-05-25T16:06:11.167Z,52.85
2023-05-25T16:08:38.302Z,34.90
2023-05-25T16:11:05.592Z,36.13
2023-05-25T16:13:32.645Z,40.28
2023-05-25T16:15:59.750Z,81.05
2023-05-25T16:18:26.865Z,40.67
2023-05-25T16:20:57.577Z,47.63
2023-05-25T16:23:25.141Z,43.15
2023-05-25T16:25:52.353Z,40.42
2023-05-25T16:28:19.389Z,56.60
2023-05-25T16:30:46.345Z,71.05
2023-05-25T16:33:13.510Z,64.05
2023-05-25T16:35:40.518Z,62.08
2023-05-25T16:38:07.551Z,42.35
2023-05-25T16:40:34.587Z,42.80
2023-05-25T16:43:01.700Z,42.47
2023-05-25T16:45:28.801Z,36.88
2023-05-25T16:47:56.004Z,51.75
2023-05-25T16:50:23.120Z,33.72
2023-05-25T16:52:50.148Z,72.55
2023-05-25T16:55:17.206Z,123.18
2023-05-25T16:57:44.212Z,101.40
2023-05-25T17:00:12.137Z,49.33
2023-05-25T17:02:39.429Z,67.85
2023-05-25T17:05:07.245Z,50.97
2023-05-25T17:07:36.169Z,56.60
2023-05-25T17:10:03.417Z,93.95
2023-05-25T17:12:30.500Z,53.40
2023-05-25T17:14:57.567Z,49.83
2023-05-25T17:17:28.096Z,44.95
2023-05-25T17:19:55.569Z,36.53
2023-05-25T17:22:22.773Z,39.55
2023-05-25T17:24:49.820Z,52.10
2023-05-25T17:27:17.244Z,53.25
2023-05-25T17:29:44.279Z,67.07
2023-05-25T17:32:11.424Z,47.95
2023-05-25T17:34:38.487Z,63.03
2023-05-25T17:37:05.822Z,40.10
2023-05-25T17:39:32.848Z,54.05
2023-05-25T17:41:59.924Z,204.32
2023-05-25T17:44:27.078Z,204.48
2023-05-25T17:46:54.085Z,196.70
2023-05-25T17:49:21.100Z,185.07
2023-05-25T17:51:48.043Z,198.88
2023-05-25T17:54:18.418Z,199.27
2023-05-25T17:56:46.484Z,242.45
2023-05-25T17:59:13.530Z,219.70
2023-05-25T18:01:41.788Z,219.30
2023-05-25T18:04:09.101Z,231.13
2023-05-25T18:06:37.083Z,206.40
2023-05-25T18:09:04.461Z,206.02
2023-05-25T18:11:33.533Z,182.13
2023-05-25T18:14:00.627Z,233.40
2023-05-25T18:16:27.737Z,191.63
2023-05-25T18:18:54.795Z,212.93
2023-05-25T18:21:21.808Z,200.15
2023-05-25T18:23:48.820Z,213.70
2023-05-25T18:26:15.966Z,247.48
2023-05-25T18:28:42.938Z,203.55
2023-05-25T18:31:09.990Z,240.68
2023-05-25T18:33:37.121Z,203.70
2023-05-25T18:36:04.369Z,211.55
2023-05-25T18:38:31.384Z,242.50
2023-05-25T18:40:58.435Z,209.05
2023-05-25T18:43:26.152Z,219.88
2023-05-25T18:45:53.319Z,218.38
2023-05-25T18:48:20.408Z,210.10
2023-05-25T18:50:47.431Z,211.18
2023-05-25T18:53:14.449Z,223.98
2023-05-25T18:55:41.508Z,213.23
2023-05-25T18:58:08.636Z,45.92
2023-05-25T19:00:35.740Z,45.45
2023-05-25T19:03:03.171Z,140.93
2023-05-25T19:05:30.268Z,150.90
2023-05-25T19:07:59.565Z,148.85
2023-05-25T19:10:27.675Z,138.25
2023-05-25T19:12:54.958Z,140.60
2023-05-25T19:15:22.333Z,126.03
2023-05-25T19:17:49.568Z,120.70
2023-05-25T19:20:17.051Z,111.65
2023-05-25T19:22:44.467Z,111.32
2023-05-25T19:25:11.884Z,39.25
2023-05-25T19:27:39.038Z,82.57
2023-05-25T19:30:07.054Z,44.00
2023-05-25T19:32:34.112Z,46.05
2023-05-25T19:35:01.338Z,53.20
2023-05-25T19:37:28.388Z,51.92
2023-05-25T19:39:55.421Z,36.55
2023-05-25T19:42:22.477Z,29.88
2023-05-25T19:44:49.591Z,45.03
2023-05-25T19:47:16.663Z,82.25
2023-05-25T19:49:43.673Z,37.42
2023-05-25T19:52:10.780Z,34.75
2023-05-25T19:54:38.490Z,42.97
2023-05-25T19:57:06.802Z,42.92
2023-05-25T19:59:33.882Z,38.05
2023-05-25T20:02:01.016Z,23.98
2023-05-25T20:04:28.043Z,32.38
2023-05-25T20:06:55.591Z,47.53
2023-05-25T20:09:30.486Z,62.78
2023-05-25T20:12:00.865Z,43.72
2023-05-25T20:14:27.913Z,72.15
2023-05-25T20:16:55.975Z,28.98
2023-05-25T20:19:23.344Z,75.85
2023-05-25T20:21:50.841Z,39.03
2023-05-25T20:24:18.117Z,35.78
2023-05-25T20:26:45.479Z,43.20
2023-05-25T20:29:12.564Z,39.70
2023-05-25T20:31:40.344Z,25.52
2023-05-25T20:34:07.621Z,206.80
2023-05-25T20:36:34.713Z,209.18
2023-05-25T20:39:03.255Z,232.55
2023-05-25T20:41:30.606Z,192.15
2023-05-25T20:43:57.952Z,192.43
2023-05-25T20:46:25.218Z,216.32
2023-05-25T20:48:53.422Z,215.45
2023-05-25T20:51:21.779Z,209.15
2023-05-25T20:53:48.934Z,219.25
2023-05-25T20:56:16.242Z,212.70
2023-05-25T20:58:43.523Z,208.95
2023-05-25T21:01:10.725Z,203.93
2023-05-25T21:03:37.945Z,206.27
2023-05-25T21:06:05.028Z,214.02
2023-05-25T21:08:33.163Z,205.27
2023-05-25T21:11:00.174Z,207.90
2023-05-25T21:13:27.252Z,209.60
2023-05-25T21:15:54.304Z,215.52
2023-05-25T21:18:21.520Z,208.65
2023-05-25T21:20:49.372Z,209.45
2023-05-25T21:23:16.303Z,207.32
2023-05-25T21:25:43.490Z,211.35
2023-05-25T21:28:10.706Z,211.07
2023-05-25T21:30:37.767Z,213.88
2023-05-25T21:33:04.822Z,216.57
2023-05-25T21:35:31.950Z,216.35
2023-05-25T21:37:59.027Z,209.27
2023-05-25T21:40:26.051Z,215.40
2023-05-25T21:42:53.430Z,211.77
2023-05-25T21:45:20.974Z,212.77
2023-05-25T21:47:48.188Z,226.68
2023-05-25T21:50:15.371Z,224.30
2023-05-25T21:52:42.623Z,217.68
2023-05-25T21:55:09.958Z,219.70
2023-05-25T21:57:37.041Z,218.18
2023-05-25T22:00:06.971Z,223.85
2023-05-25T22:02:40.206Z,214.98
2023-05-25T22:05:07.571Z,210.40
2023-05-25T22:07:34.598Z,224.10
2023-05-25T22:10:01.607Z,218.10
2023-05-25T22:12:28.622Z,215.02
2023-05-25T22:14:55.701Z,223.25
2023-05-25T22:17:22.806Z,216.07
2023-05-25T22:20:03.358Z,218.40
2023-05-25T22:22:34.162Z,200.57
2023-05-25T22:25:01.272Z,209.73
2023-05-25T22:27:28.414Z,207.48
2023-05-25T22:29:55.999Z,202.02
2023-05-25T22:32:23.293Z,210.35
2023-05-25T22:34:50.611Z,204.43
2023-05-25T22:37:17.816Z,205.63
2023-05-25T22:39:45.319Z,204.10
2023-05-25T22:42:12.425Z,197.57
2023-05-25T22:44:39.429Z,200.50
2023-05-25T22:47:07.021Z,214.43
2023-05-25T22:49:41.134Z,207.75
2023-05-25T22:52:10.476Z,207.48
2023-05-25T22:54:37.467Z,211.50
2023-05-25T22:57:04.565Z,211.30
2023-05-25T22:59:31.543Z,212.85
2023-05-25T23:01:58.586Z,219.48
2023-05-25T23:04:25.555Z,221.27
2023-05-25T23:06:52.509Z,218.60
2023-05-25T23:09:19.588Z,210.65
2023-05-25T23:11:46.539Z,217.85
2023-05-25T23:14:13.491Z,225.25
2023-05-25T23:16:41.492Z,225.82
2023-05-25T23:19:08.706Z,226.07
